Pagina principale
METAR-TAF:

METAR-TAF

Aeroporti :

Shahrekord, Iran

latitudine: 32-20N, longitudine: 050-51E, altezza: 2078 m

Osservazione

Il bollettino è stato emesso 1 ora e 2 minuti fa, alle 16:00 UTC
Vento 8 kt da ovest
Temperature 24°C
Umidità 19%
Pressione 1022 hPa
Visibilità 10 km o più
Poco nuvoloso ad un'altezza di 4000 ft

METAR: OIFS 051600Z 28008KT 9999 FEW040 24/M01 Q1022

Ora: 21:32 (17:02 UTC)


TAF: mancante

Osservazioni e previsioni meteorologiche di più di 4000 aeroporti (messaggi METAR e TAF).

Le stazioni disponibili sono rappresentate dai dischi gialli e rossi sulla carta.

Puntare il mouse per vedere il nome della stazione.

Clicca sopra per visualizzare le osservazioni e previsioni meteorologiche.

Per cambiare la mappa : fare clic sui pulsanti verdi con una croce nera per ingrandire, il pulsante verde con un trattino per diminuire, o sulla freccia verde per le mappe adiacenti.


METAR-TAF: